Jewett, Texas
Current Conditions -  °F | °C
As of 10:35 AM on Saturday 22 Nov 2014 (Local Time) from KLXY Reporting Station
Overcast Overcast  
Wind Chill: 58°   Ceiling: 400
Heat Index: 58°   Visibility: 10mi
Dew Point: 57°   Wind: 12mph
Humidity: 96%   Direction: 120°ESE
Pressure: 30.04"   Gusts: 18mph
Location:  31.36°N, 96.14°W
Report Text: KLXY 221635Z AUTO 12010G16KT 10SM OVC004 15/14 A3004 RMK AO2 LTG DSNT ALQS T01470141
Loading
Personal Weather Stations






























Interactive Weather Map New forecast layout! Learn more

10-Day Weather Forecast

Advertisements
Track Severe Weather on mobile